Jamesburg, New Jersey
Current Conditions -  °F | °C
As of 5:53 PM on Tuesday 25 Nov 2014 (Local Time) from KTTN Reporting Station
Clear Clear  
Wind Chill: 47°   Ceiling: Unl
Heat Index: 49°   Visibility: 10mi
Dew Point: 28°   Wind: 5mph
Humidity: 44%   Direction: 230°SW
Pressure: 30.05"   Gusts: NA
Location:  40.35°N, 74.44°W
Report Text: KTTN 252253Z 23004KT 10SM CLR 09/M02 A3005 RMK AO2 SLP170 T00941022
Loading
Personal Weather Stations






























Interactive Weather Map New forecast layout! Learn more

10-Day Weather Forecast

Advertisements
Track Severe Weather on mobile